sensor_id;sensor_type;location;lat;lon;timestamp;temperature;humidity
21807;DHT22;11065;50.786;7.840;2022-12-11T00:00:07;3.40;52.50
21807;DHT22;11065;50.786;7.840;2022-12-11T00:02:35;3.50;52.60
21807;DHT22;11065;50.786;7.840;2022-12-11T00:05:02;3.40;52.60
21807;DHT22;11065;50.786;7.840;2022-12-11T00:07:29;3.40;52.60
21807;DHT22;11065;50.786;7.840;2022-12-11T00:09:56;3.40;52.60
21807;DHT22;11065;50.786;7.840;2022-12-11T00:12:23;3.50;52.60
21807;DHT22;11065;50.786;7.840;2022-12-11T00:14:50;3.40;52.70
21807;DHT22;11065;50.786;7.840;2022-12-11T00:17:17;3.40;52.60
21807;DHT22;11065;50.786;7.840;2022-12-11T00:19:43;3.40;52.60
21807;DHT22;11065;50.786;7.840;2022-12-11T00:22:10;3.40;52.70
21807;DHT22;11065;50.786;7.840;2022-12-11T00:24:37;3.40;52.70
21807;DHT22;11065;50.786;7.840;2022-12-11T00:27:04;3.40;52.70
21807;DHT22;11065;50.786;7.840;2022-12-11T00:29:31;3.40;52.70
21807;DHT22;11065;50.786;7.840;2022-12-11T00:31:57;3.40;52.70
21807;DHT22;11065;50.786;7.840;2022-12-11T00:34:24;3.50;52.80
21807;DHT22;11065;50.786;7.840;2022-12-11T00:36:51;3.50;52.80
21807;DHT22;11065;50.786;7.840;2022-12-11T00:39:18;3.50;52.70
21807;DHT22;11065;50.786;7.840;2022-12-11T00:41:45;3.50;52.80
21807;DHT22;11065;50.786;7.840;2022-12-11T00:44:12;3.50;52.70
21807;DHT22;11065;50.786;7.840;2022-12-11T00:46:39;3.50;52.70
21807;DHT22;11065;50.786;7.840;2022-12-11T00:49:05;3.50;52.70
21807;DHT22;11065;50.786;7.840;2022-12-11T00:51:32;3.50;52.70
21807;DHT22;11065;50.786;7.840;2022-12-11T00:53:59;3.50;52.70
21807;DHT22;11065;50.786;7.840;2022-12-11T00:56:25;3.50;52.80
21807;DHT22;11065;50.786;7.840;2022-12-11T00:58:52;3.50;52.80
21807;DHT22;11065;50.786;7.840;2022-12-11T01:01:22;3.50;52.80
21807;DHT22;11065;50.786;7.840;2022-12-11T01:03:51;3.50;52.90
21807;DHT22;11065;50.786;7.840;2022-12-11T01:06:21;3.50;52.80
21807;DHT22;11065;50.786;7.840;2022-12-11T01:08:49;3.50;52.80
21807;DHT22;11065;50.786;7.840;2022-12-11T01:11:40;3.50;52.80
21807;DHT22;11065;50.786;7.840;2022-12-11T01:14:08;3.50;52.80
21807;DHT22;11065;50.786;7.840;2022-12-11T01:16:35;3.50;52.80
21807;DHT22;11065;50.786;7.840;2022-12-11T01:19:03;3.50;52.80
21807;DHT22;11065;50.786;7.840;2022-12-11T01:21:29;3.50;52.90
21807;DHT22;11065;50.786;7.840;2022-12-11T01:23:56;3.50;52.90
21807;DHT22;11065;50.786;7.840;2022-12-11T01:26:23;3.50;52.90
21807;DHT22;11065;50.786;7.840;2022-12-11T01:28:51;3.50;52.90
21807;DHT22;11065;50.786;7.840;2022-12-11T01:31:19;3.50;52.90
21807;DHT22;11065;50.786;7.840;2022-12-11T01:33:46;3.50;52.90
21807;DHT22;11065;50.786;7.840;2022-12-11T01:36:18;3.50;52.90
21807;DHT22;11065;50.786;7.840;2022-12-11T01:38:46;3.50;53.00
21807;DHT22;11065;50.786;7.840;2022-12-11T01:41:15;3.60;53.10
21807;DHT22;11065;50.786;7.840;2022-12-11T01:45:06;3.50;53.00
21807;DHT22;11065;50.786;7.840;2022-12-11T01:46:54;3.60;53.10
21807;DHT22;11065;50.786;7.840;2022-12-11T01:49:24;3.60;53.10
21807;DHT22;11065;50.786;7.840;2022-12-11T01:51:59;3.60;53.10
21807;DHT22;11065;50.786;7.840;2022-12-11T01:54:29;3.60;53.10
21807;DHT22;11065;50.786;7.840;2022-12-11T01:56:59;3.60;53.10
21807;DHT22;11065;50.786;7.840;2022-12-11T01:59:29;3.60;53.10
21807;DHT22;11065;50.786;7.840;2022-12-11T02:02:09;3.60;53.10
21807;DHT22;11065;50.786;7.840;2022-12-11T02:04:39;3.60;53.20
21807;DHT22;11065;50.786;7.840;2022-12-11T02:07:08;3.60;53.10
21807;DHT22;11065;50.786;7.840;2022-12-11T02:09:37;3.60;53.10
21807;DHT22;11065;50.786;7.840;2022-12-11T02:15:03;3.60;53.10
21807;DHT22;11065;50.786;7.840;2022-12-11T02:17:40;3.60;53.10
21807;DHT22;11065;50.786;7.840;2022-12-11T02:20:28;3.60;53.20
21807;DHT22;11065;50.786;7.840;2022-12-11T02:29:00;3.60;53.20
21807;DHT22;11065;50.786;7.840;2022-12-11T02:31:38;3.60;53.20
21807;DHT22;11065;50.786;7.840;2022-12-11T02:36:53;3.70;53.30
21807;DHT22;11065;50.786;7.840;2022-12-11T02:39:24;3.70;53.30
21807;DHT22;11065;50.786;7.840;2022-12-11T02:41:53;3.60;53.30
21807;DHT22;11065;50.786;7.840;2022-12-11T02:44:24;3.70;53.30
21807;DHT22;11065;50.786;7.840;2022-12-11T02:46:53;3.60;53.30
21807;DHT22;11065;50.786;7.840;2022-12-11T02:49:21;3.60;53.30
21807;DHT22;11065;50.786;7.840;2022-12-11T02:51:50;3.60;53.30
21807;DHT22;11065;50.786;7.840;2022-12-11T02:54:20;3.70;53.40
21807;DHT22;11065;50.786;7.840;2022-12-11T02:57:16;3.70;53.40
21807;DHT22;11065;50.786;7.840;2022-12-11T02:59:46;3.70;53.40
21807;DHT22;11065;50.786;7.840;2022-12-11T03:02:14;3.70;53.30
21807;DHT22;11065;50.786;7.840;2022-12-11T03:04:43;3.70;53.30
21807;DHT22;11065;50.786;7.840;2022-12-11T03:07:23;3.60;53.30
21807;DHT22;11065;50.786;7.840;2022-12-11T03:09:51;3.60;53.40
21807;DHT22;11065;50.786;7.840;2022-12-11T03:12:27;3.60;53.40
21807;DHT22;11065;50.786;7.840;2022-12-11T03:14:56;3.60;53.50
21807;DHT22;11065;50.786;7.840;2022-12-11T03:17:32;3.70;53.50
21807;DHT22;11065;50.786;7.840;2022-12-11T03:20:25;3.70;53.50
21807;DHT22;11065;50.786;7.840;2022-12-11T03:25:49;3.70;53.60
21807;DHT22;11065;50.786;7.840;2022-12-11T03:28:45;3.70;54.00
21807;DHT22;11065;50.786;7.840;2022-12-11T03:31:18;3.70;53.50
21807;DHT22;11065;50.786;7.840;2022-12-11T03:33:50;3.70;53.40
21807;DHT22;11065;50.786;7.840;2022-12-11T03:36:25;3.70;53.50
21807;DHT22;11065;50.786;7.840;2022-12-11T03:39:09;3.70;53.50
21807;DHT22;11065;50.786;7.840;2022-12-11T03:41:38;3.70;53.50
21807;DHT22;11065;50.786;7.840;2022-12-11T03:44:07;3.70;53.50
21807;DHT22;11065;50.786;7.840;2022-12-11T03:46:37;3.70;53.50
21807;DHT22;11065;50.786;7.840;2022-12-11T03:49:09;3.70;53.40
21807;DHT22;11065;50.786;7.840;2022-12-11T03:51:42;3.70;53.50
21807;DHT22;11065;50.786;7.840;2022-12-11T03:54:10;3.70;53.50
21807;DHT22;11065;50.786;7.840;2022-12-11T03:56:38;3.60;53.50
21807;DHT22;11065;50.786;7.840;2022-12-11T03:59:06;3.60;53.50
21807;DHT22;11065;50.786;7.840;2022-12-11T04:01:33;3.60;53.60
21807;DHT22;11065;50.786;7.840;2022-12-11T04:04:00;3.60;53.70
21807;DHT22;11065;50.786;7.840;2022-12-11T04:06:27;3.70;54.20
21807;DHT22;11065;50.786;7.840;2022-12-11T04:08:54;3.70;53.80
21807;DHT22;11065;50.786;7.840;2022-12-11T04:11:21;3.70;53.80
21807;DHT22;11065;50.786;7.840;2022-12-11T04:14:05;3.70;53.80
21807;DHT22;11065;50.786;7.840;2022-12-11T04:16:51;3.70;53.80
21807;DHT22;11065;50.786;7.840;2022-12-11T04:19:19;3.70;53.80
21807;DHT22;11065;50.786;7.840;2022-12-11T04:22:05;3.80;53.80
21807;DHT22;11065;50.786;7.840;2022-12-11T04:24:50;3.80;53.80
21807;DHT22;11065;50.786;7.840;2022-12-11T04:27:17;3.80;53.60
21807;DHT22;11065;50.786;7.840;2022-12-11T04:30:07;3.70;53.60
21807;DHT22;11065;50.786;7.840;2022-12-11T04:32:34;3.70;53.60
21807;DHT22;11065;50.786;7.840;2022-12-11T04:35:01;3.70;53.60
21807;DHT22;11065;50.786;7.840;2022-12-11T04:37:28;3.70;53.60
21807;DHT22;11065;50.786;7.840;2022-12-11T04:39:55;3.70;53.80
21807;DHT22;11065;50.786;7.840;2022-12-11T04:42:22;3.70;53.80
21807;DHT22;11065;50.786;7.840;2022-12-11T04:44:49;3.70;53.90
21807;DHT22;11065;50.786;7.840;2022-12-11T04:47:16;3.70;53.90
21807;DHT22;11065;50.786;7.840;2022-12-11T04:49:43;3.70;53.90
21807;DHT22;11065;50.786;7.840;2022-12-11T04:52:10;3.70;53.90
21807;DHT22;11065;50.786;7.840;2022-12-11T04:54:37;3.80;53.90
21807;DHT22;11065;50.786;7.840;2022-12-11T04:57:04;3.80;54.00
21807;DHT22;11065;50.786;7.840;2022-12-11T04:59:31;3.80;54.00
21807;DHT22;11065;50.786;7.840;2022-12-11T05:01:58;3.80;53.90
21807;DHT22;11065;50.786;7.840;2022-12-11T05:04:30;3.90;54.00
21807;DHT22;11065;50.786;7.840;2022-12-11T05:06:58;3.80;54.00
21807;DHT22;11065;50.786;7.840;2022-12-11T05:09:24;3.90;54.00
21807;DHT22;11065;50.786;7.840;2022-12-11T05:11:53;3.80;54.00
21807;DHT22;11065;50.786;7.840;2022-12-11T05:14:20;3.90;54.00
21807;DHT22;11065;50.786;7.840;2022-12-11T05:16:47;3.90;54.00
21807;DHT22;11065;50.786;7.840;2022-12-11T05:19:14;3.90;54.00
21807;DHT22;11065;50.786;7.840;2022-12-11T05:21:41;3.90;53.90
21807;DHT22;11065;50.786;7.840;2022-12-11T05:24:08;3.90;54.00
21807;DHT22;11065;50.786;7.840;2022-12-11T05:26:34;3.90;53.90
21807;DHT22;11065;50.786;7.840;2022-12-11T05:29:01;3.90;53.90
21807;DHT22;11065;50.786;7.840;2022-12-11T05:31:28;3.90;53.90
21807;DHT22;11065;50.786;7.840;2022-12-11T05:33:55;3.90;54.00
21807;DHT22;11065;50.786;7.840;2022-12-11T05:36:24;3.90;54.00
21807;DHT22;11065;50.786;7.840;2022-12-11T05:38:52;3.90;54.10
21807;DHT22;11065;50.786;7.840;2022-12-11T05:41:21;3.90;54.00
21807;DHT22;11065;50.786;7.840;2022-12-11T05:43:48;4.00;54.10
21807;DHT22;11065;50.786;7.840;2022-12-11T05:46:18;4.00;54.10
21807;DHT22;11065;50.786;7.840;2022-12-11T05:48:49;4.00;54.00
21807;DHT22;11065;50.786;7.840;2022-12-11T05:51:16;4.00;54.00
21807;DHT22;11065;50.786;7.840;2022-12-11T05:53:45;4.00;54.00
21807;DHT22;11065;50.786;7.840;2022-12-11T05:56:18;4.00;54.00
21807;DHT22;11065;50.786;7.840;2022-12-11T05:58:46;4.00;53.90
21807;DHT22;11065;50.786;7.840;2022-12-11T06:01:17;4.00;53.90
21807;DHT22;11065;50.786;7.840;2022-12-11T06:03:44;4.00;53.90
21807;DHT22;11065;50.786;7.840;2022-12-11T06:06:10;4.00;53.90
21807;DHT22;11065;50.786;7.840;2022-12-11T06:08:37;4.00;54.00
21807;DHT22;11065;50.786;7.840;2022-12-11T06:11:04;4.00;54.00
21807;DHT22;11065;50.786;7.840;2022-12-11T06:13:32;4.00;53.90
21807;DHT22;11065;50.786;7.840;2022-12-11T06:16:03;4.00;53.90
21807;DHT22;11065;50.786;7.840;2022-12-11T06:18:34;4.00;54.30
21807;DHT22;11065;50.786;7.840;2022-12-11T06:21:12;4.00;53.80
21807;DHT22;11065;50.786;7.840;2022-12-11T06:23:40;4.00;53.90
21807;DHT22;11065;50.786;7.840;2022-12-11T06:26:08;4.00;53.90
21807;DHT22;11065;50.786;7.840;2022-12-11T06:28:35;4.00;53.90
21807;DHT22;11065;50.786;7.840;2022-12-11T06:31:02;4.00;54.00
21807;DHT22;11065;50.786;7.840;2022-12-11T06:33:30;4.00;54.00
21807;DHT22;11065;50.786;7.840;2022-12-11T06:36:01;3.90;53.90
21807;DHT22;11065;50.786;7.840;2022-12-11T06:38:28;3.90;54.00
21807;DHT22;11065;50.786;7.840;2022-12-11T06:40:59;4.00;54.10
21807;DHT22;11065;50.786;7.840;2022-12-11T06:43:26;4.00;54.10
21807;DHT22;11065;50.786;7.840;2022-12-11T06:45:53;4.00;54.10
21807;DHT22;11065;50.786;7.840;2022-12-11T06:48:26;4.00;54.10
21807;DHT22;11065;50.786;7.840;2022-12-11T06:50:53;4.00;54.10
21807;DHT22;11065;50.786;7.840;2022-12-11T06:53:20;4.00;54.10
21807;DHT22;11065;50.786;7.840;2022-12-11T06:55:47;4.00;54.10
21807;DHT22;11065;50.786;7.840;2022-12-11T06:58:14;4.00;54.10
21807;DHT22;11065;50.786;7.840;2022-12-11T07:00:41;4.00;54.10
21807;DHT22;11065;50.786;7.840;2022-12-11T07:03:09;4.00;54.00
21807;DHT22;11065;50.786;7.840;2022-12-11T07:05:36;4.00;54.00
21807;DHT22;11065;50.786;7.840;2022-12-11T07:08:02;4.00;54.10
21807;DHT22;11065;50.786;7.840;2022-12-11T07:10:29;4.00;54.10
21807;DHT22;11065;50.786;7.840;2022-12-11T07:12:57;4.00;54.20
21807;DHT22;11065;50.786;7.840;2022-12-11T07:15:24;4.00;54.60
21807;DHT22;11065;50.786;7.840;2022-12-11T07:17:51;4.00;54.10
21807;DHT22;11065;50.786;7.840;2022-12-11T07:20:18;4.00;54.10
21807;DHT22;11065;50.786;7.840;2022-12-11T07:22:45;4.00;54.00
21807;DHT22;11065;50.786;7.840;2022-12-11T07:25:13;4.00;54.00
21807;DHT22;11065;50.786;7.840;2022-12-11T07:27:40;4.00;54.10
21807;DHT22;11065;50.786;7.840;2022-12-11T07:30:08;4.00;54.10
21807;DHT22;11065;50.786;7.840;2022-12-11T07:32:35;4.00;54.10
21807;DHT22;11065;50.786;7.840;2022-12-11T07:35:02;4.00;54.10
21807;DHT22;11065;50.786;7.840;2022-12-11T07:37:29;4.00;54.20
21807;DHT22;11065;50.786;7.840;2022-12-11T07:39:55;4.00;54.20
21807;DHT22;11065;50.786;7.840;2022-12-11T07:42:23;4.00;54.20
21807;DHT22;11065;50.786;7.840;2022-12-11T07:44:50;4.00;54.10
21807;DHT22;11065;50.786;7.840;2022-12-11T07:47:16;4.10;54.20
21807;DHT22;11065;50.786;7.840;2022-12-11T07:49:43;4.10;54.10
21807;DHT22;11065;50.786;7.840;2022-12-11T07:52:10;4.10;54.10
21807;DHT22;11065;50.786;7.840;2022-12-11T07:54:37;4.10;54.20
21807;DHT22;11065;50.786;7.840;2022-12-11T07:57:04;4.10;54.20
21807;DHT22;11065;50.786;7.840;2022-12-11T07:59:39;4.10;54.20
21807;DHT22;11065;50.786;7.840;2022-12-11T08:02:09;4.10;54.20
21807;DHT22;11065;50.786;7.840;2022-12-11T08:04:37;4.10;54.20
21807;DHT22;11065;50.786;7.840;2022-12-11T08:07:04;4.10;54.20
21807;DHT22;11065;50.786;7.840;2022-12-11T08:09:31;4.20;54.30
21807;DHT22;11065;50.786;7.840;2022-12-11T08:11:58;4.20;54.30
21807;DHT22;11065;50.786;7.840;2022-12-11T08:14:25;4.20;54.20
21807;DHT22;11065;50.786;7.840;2022-12-11T08:16:52;4.20;54.20
21807;DHT22;11065;50.786;7.840;2022-12-11T08:19:18;4.30;54.20
21807;DHT22;11065;50.786;7.840;2022-12-11T08:21:45;4.30;54.20
21807;DHT22;11065;50.786;7.840;2022-12-11T08:24:12;4.30;54.20
21807;DHT22;11065;50.786;7.840;2022-12-11T08:26:43;4.30;54.20
21807;DHT22;11065;50.786;7.840;2022-12-11T08:29:10;4.30;54.10
21807;DHT22;11065;50.786;7.840;2022-12-11T08:31:38;4.30;54.10
21807;DHT22;11065;50.786;7.840;2022-12-11T08:34:05;4.30;54.20
21807;DHT22;11065;50.786;7.840;2022-12-11T08:36:32;4.30;54.10
21807;DHT22;11065;50.786;7.840;2022-12-11T08:38:59;4.40;54.10
21807;DHT22;11065;50.786;7.840;2022-12-11T08:45:38;4.40;54.10
21807;DHT22;11065;50.786;7.840;2022-12-11T08:48:05;4.40;54.10
21807;DHT22;11065;50.786;7.840;2022-12-11T08:50:32;4.40;54.00
21807;DHT22;11065;50.786;7.840;2022-12-11T08:52:59;4.40;54.10
21807;DHT22;11065;50.786;7.840;2022-12-11T08:55:25;4.40;54.00
21807;DHT22;11065;50.786;7.840;2022-12-11T08:57:52;4.40;54.10
21807;DHT22;11065;50.786;7.840;2022-12-11T09:00:19;4.40;54.00
21807;DHT22;11065;50.786;7.840;2022-12-11T09:02:46;4.50;54.10
21807;DHT22;11065;50.786;7.840;2022-12-11T09:05:13;4.50;54.10
21807;DHT22;11065;50.786;7.840;2022-12-11T09:07:40;4.50;54.10
21807;DHT22;11065;50.786;7.840;2022-12-11T09:10:08;4.50;54.10
21807;DHT22;11065;50.786;7.840;2022-12-11T09:12:35;4.50;54.00
21807;DHT22;11065;50.786;7.840;2022-12-11T09:15:03;4.50;54.00
21807;DHT22;11065;50.786;7.840;2022-12-11T09:17:30;4.60;54.00
21807;DHT22;11065;50.786;7.840;2022-12-11T09:19:57;4.60;54.00
21807;DHT22;11065;50.786;7.840;2022-12-11T09:22:23;4.60;54.00
21807;DHT22;11065;50.786;7.840;2022-12-11T09:24:50;4.60;53.90
21807;DHT22;11065;50.786;7.840;2022-12-11T09:27:17;4.60;53.90
21807;DHT22;11065;50.786;7.840;2022-12-11T09:29:46;4.60;53.90
21807;DHT22;11065;50.786;7.840;2022-12-11T09:32:13;4.70;53.90
21807;DHT22;11065;50.786;7.840;2022-12-11T09:34:40;4.70;53.90
21807;DHT22;11065;50.786;7.840;2022-12-11T09:37:06;4.70;53.90
21807;DHT22;11065;50.786;7.840;2022-12-11T09:39:33;4.70;53.90
21807;DHT22;11065;50.786;7.840;2022-12-11T09:42:13;4.70;53.80
21807;DHT22;11065;50.786;7.840;2022-12-11T09:44:51;4.80;53.80
21807;DHT22;11065;50.786;7.840;2022-12-11T09:47:35;4.80;53.70
21807;DHT22;11065;50.786;7.840;2022-12-11T09:52:54;4.80;53.40
21807;DHT22;11065;50.786;7.840;2022-12-11T09:55:25;4.80;53.40
21807;DHT22;11065;50.786;7.840;2022-12-11T09:58:05;4.70;53.50
21807;DHT22;11065;50.786;7.840;2022-12-11T10:00:46;4.80;53.50
21807;DHT22;11065;50.786;7.840;2022-12-11T10:06:32;4.70;53.50
21807;DHT22;11065;50.786;7.840;2022-12-11T10:11:36;4.80;53.60
21807;DHT22;11065;50.786;7.840;2022-12-11T10:14:30;4.80;53.60
21807;DHT22;11065;50.786;7.840;2022-12-11T10:17:08;4.80;53.50
21807;DHT22;11065;50.786;7.840;2022-12-11T10:19:38;4.80;53.40
21807;DHT22;11065;50.786;7.840;2022-12-11T10:22:13;4.80;53.30
21807;DHT22;11065;50.786;7.840;2022-12-11T10:25:01;4.80;53.30
21807;DHT22;11065;50.786;7.840;2022-12-11T10:27:39;4.80;53.30
21807;DHT22;11065;50.786;7.840;2022-12-11T10:35:52;4.80;53.40
21807;DHT22;11065;50.786;7.840;2022-12-11T10:41:15;4.90;53.50
21807;DHT22;11065;50.786;7.840;2022-12-11T10:43:45;4.90;53.40
21807;DHT22;11065;50.786;7.840;2022-12-11T10:46:24;5.00;53.60
21807;DHT22;11065;50.786;7.840;2022-12-11T10:48:54;5.00;53.60
21807;DHT22;11065;50.786;7.840;2022-12-11T10:51:23;5.00;53.60
21807;DHT22;11065;50.786;7.840;2022-12-11T10:53:54;5.10;53.60
21807;DHT22;11065;50.786;7.840;2022-12-11T10:56:29;5.10;53.50
21807;DHT22;11065;50.786;7.840;2022-12-11T10:58:58;5.20;53.50
21807;DHT22;11065;50.786;7.840;2022-12-11T11:01:30;5.20;53.50
21807;DHT22;11065;50.786;7.840;2022-12-11T11:04:05;5.30;53.40
21807;DHT22;11065;50.786;7.840;2022-12-11T11:06:32;5.30;53.30
21807;DHT22;11065;50.786;7.840;2022-12-11T11:09:00;5.40;53.30
21807;DHT22;11065;50.786;7.840;2022-12-11T11:14:19;5.40;53.10
21807;DHT22;11065;50.786;7.840;2022-12-11T11:16:48;5.40;53.10
21807;DHT22;11065;50.786;7.840;2022-12-11T11:19:37;5.40;53.10
21807;DHT22;11065;50.786;7.840;2022-12-11T11:22:13;5.40;53.00
21807;DHT22;11065;50.786;7.840;2022-12-11T11:27:29;5.40;53.10
21807;DHT22;11065;50.786;7.840;2022-12-11T11:30:05;5.50;53.10
21807;DHT22;11065;50.786;7.840;2022-12-11T11:32:42;5.50;53.10
21807;DHT22;11065;50.786;7.840;2022-12-11T11:37:40;5.60;53.20
21807;DHT22;11065;50.786;7.840;2022-12-11T11:40:28;5.60;53.00
21807;DHT22;11065;50.786;7.840;2022-12-11T11:43:16;5.60;52.90
21807;DHT22;11065;50.786;7.840;2022-12-11T11:45:54;5.60;52.80
21807;DHT22;11065;50.786;7.840;2022-12-11T11:48:47;5.60;52.90
21807;DHT22;11065;50.786;7.840;2022-12-11T11:53:49;5.70;52.90
21807;DHT22;11065;50.786;7.840;2022-12-11T11:56:24;5.70;52.90
21807;DHT22;11065;50.786;7.840;2022-12-11T11:59:21;5.70;52.80
21807;DHT22;11065;50.786;7.840;2022-12-11T12:01:53;5.70;52.70
21807;DHT22;11065;50.786;7.840;2022-12-11T12:04:21;5.70;52.60
21807;DHT22;11065;50.786;7.840;2022-12-11T12:07:09;5.70;52.60
21807;DHT22;11065;50.786;7.840;2022-12-11T12:12:38;5.70;52.50
21807;DHT22;11065;50.786;7.840;2022-12-11T12:20:27;5.60;52.60
21807;DHT22;11065;50.786;7.840;2022-12-11T12:28:24;5.60;52.70
21807;DHT22;11065;50.786;7.840;2022-12-11T12:36:34;5.60;52.60
21807;DHT22;11065;50.786;7.840;2022-12-11T12:44:52;5.70;52.60
21807;DHT22;11065;50.786;7.840;2022-12-11T12:47:21;5.70;52.60
21807;DHT22;11065;50.786;7.840;2022-12-11T12:49:49;5.60;52.70
21807;DHT22;11065;50.786;7.840;2022-12-11T12:54:49;5.70;52.60
21807;DHT22;11065;50.786;7.840;2022-12-11T12:57:36;5.70;52.60
21807;DHT22;11065;50.786;7.840;2022-12-11T13:00:05;5.70;53.00
21807;DHT22;11065;50.786;7.840;2022-12-11T13:02:49;5.70;52.50
21807;DHT22;11065;50.786;7.840;2022-12-11T13:05:25;5.70;52.50
21807;DHT22;11065;50.786;7.840;2022-12-11T13:07:56;5.70;52.50
21807;DHT22;11065;50.786;7.840;2022-12-11T13:10:33;5.70;52.40
21807;DHT22;11065;50.786;7.840;2022-12-11T13:13:01;5.70;52.30
21807;DHT22;11065;50.786;7.840;2022-12-11T13:18:03;5.70;52.30
21807;DHT22;11065;50.786;7.840;2022-12-11T13:20:32;5.70;52.30
21807;DHT22;11065;50.786;7.840;2022-12-11T13:25:28;5.60;52.30
21807;DHT22;11065;50.786;7.840;2022-12-11T13:28:06;5.60;52.30
21807;DHT22;11065;50.786;7.840;2022-12-11T13:30:33;5.60;52.30
21807;DHT22;11065;50.786;7.840;2022-12-11T13:33:06;5.60;52.30
21807;DHT22;11065;50.786;7.840;2022-12-11T13:35:34;5.60;52.30
21807;DHT22;11065;50.786;7.840;2022-12-11T13:38:18;5.60;52.30
21807;DHT22;11065;50.786;7.840;2022-12-11T13:40:53;5.60;52.20
21807;DHT22;11065;50.786;7.840;2022-12-11T13:43:26;5.60;52.30
21807;DHT22;11065;50.786;7.840;2022-12-11T13:45:59;5.60;52.30
21807;DHT22;11065;50.786;7.840;2022-12-11T13:48:38;5.60;52.20
21807;DHT22;11065;50.786;7.840;2022-12-11T13:51:06;5.60;52.20
21807;DHT22;11065;50.786;7.840;2022-12-11T13:53:33;5.60;52.20
21807;DHT22;11065;50.786;7.840;2022-12-11T13:56:06;5.50;52.10
21807;DHT22;11065;50.786;7.840;2022-12-11T13:58:34;5.50;52.10
21807;DHT22;11065;50.786;7.840;2022-12-11T14:01:21;5.50;52.20
21807;DHT22;11065;50.786;7.840;2022-12-11T14:03:57;5.50;52.20
21807;DHT22;11065;50.786;7.840;2022-12-11T14:06:25;5.50;52.20
21807;DHT22;11065;50.786;7.840;2022-12-11T14:08:55;5.50;52.20
21807;DHT22;11065;50.786;7.840;2022-12-11T14:11:42;5.50;52.30
21807;DHT22;11065;50.786;7.840;2022-12-11T14:16:55;5.50;52.20
21807;DHT22;11065;50.786;7.840;2022-12-11T14:19:22;5.50;52.20
21807;DHT22;11065;50.786;7.840;2022-12-11T14:21:55;5.50;52.20
21807;DHT22;11065;50.786;7.840;2022-12-11T14:24:23;5.50;52.20
21807;DHT22;11065;50.786;7.840;2022-12-11T14:26:52;5.50;52.30
21807;DHT22;11065;50.786;7.840;2022-12-11T14:29:30;5.50;52.20
21807;DHT22;11065;50.786;7.840;2022-12-11T14:32:03;5.50;52.20
21807;DHT22;11065;50.786;7.840;2022-12-11T14:34:38;5.50;52.20
21807;DHT22;11065;50.786;7.840;2022-12-11T14:37:09;5.50;52.20
21807;DHT22;11065;50.786;7.840;2022-12-11T14:39:42;5.50;52.20
21807;DHT22;11065;50.786;7.840;2022-12-11T14:42:13;5.50;52.20
21807;DHT22;11065;50.786;7.840;2022-12-11T14:47:41;5.40;52.20
21807;DHT22;11065;50.786;7.840;2022-12-11T14:50:33;5.40;52.10
21807;DHT22;11065;50.786;7.840;2022-12-11T14:53:07;5.40;52.10
21807;DHT22;11065;50.786;7.840;2022-12-11T14:55:37;5.40;52.10
21807;DHT22;11065;50.786;7.840;2022-12-11T14:58:13;5.40;52.10
21807;DHT22;11065;50.786;7.840;2022-12-11T15:00:40;5.40;52.10
21807;DHT22;11065;50.786;7.840;2022-12-11T15:05:55;5.40;52.20
21807;DHT22;11065;50.786;7.840;2022-12-11T15:08:27;5.40;52.30
21807;DHT22;11065;50.786;7.840;2022-12-11T15:11:10;5.30;52.30
21807;DHT22;11065;50.786;7.840;2022-12-11T15:16:14;5.30;52.30
21807;DHT22;11065;50.786;7.840;2022-12-11T15:18:42;5.30;52.30
21807;DHT22;11065;50.786;7.840;2022-12-11T15:21:10;5.30;52.30
21807;DHT22;11065;50.786;7.840;2022-12-11T15:26:13;5.20;52.40
21807;DHT22;11065;50.786;7.840;2022-12-11T15:28:40;5.20;52.40
21807;DHT22;11065;50.786;7.840;2022-12-11T15:31:23;5.20;52.40
21807;DHT22;11065;50.786;7.840;2022-12-11T15:33:51;5.10;52.30
21807;DHT22;11065;50.786;7.840;2022-12-11T15:36:25;5.10;52.30
21807;DHT22;11065;50.786;7.840;2022-12-11T15:38:56;5.10;52.30
21807;DHT22;11065;50.786;7.840;2022-12-11T15:41:23;5.00;52.20
21807;DHT22;11065;50.786;7.840;2022-12-11T15:43:52;5.00;52.20
21807;DHT22;11065;50.786;7.840;2022-12-11T15:46:24;4.90;52.20
21807;DHT22;11065;50.786;7.840;2022-12-11T15:48:52;4.90;52.30
21807;DHT22;11065;50.786;7.840;2022-12-11T15:51:18;4.80;52.30
21807;DHT22;11065;50.786;7.840;2022-12-11T15:53:45;4.80;52.30
21807;DHT22;11065;50.786;7.840;2022-12-11T15:56:14;4.70;52.40
21807;DHT22;11065;50.786;7.840;2022-12-11T15:58:46;4.70;52.50
21807;DHT22;11065;50.786;7.840;2022-12-11T16:01:13;4.70;52.50
21807;DHT22;11065;50.786;7.840;2022-12-11T16:03:40;4.60;52.50
21807;DHT22;11065;50.786;7.840;2022-12-11T16:06:11;4.70;52.60
21807;DHT22;11065;50.786;7.840;2022-12-11T16:08:38;4.60;52.60
21807;DHT22;11065;50.786;7.840;2022-12-11T16:11:05;4.60;52.60
21807;DHT22;11065;50.786;7.840;2022-12-11T16:13:32;4.60;52.70
21807;DHT22;11065;50.786;7.840;2022-12-11T16:15:58;4.60;52.80
21807;DHT22;11065;50.786;7.840;2022-12-11T16:18:25;4.60;52.80
21807;DHT22;11065;50.786;7.840;2022-12-11T16:20:52;4.60;52.80
21807;DHT22;11065;50.786;7.840;2022-12-11T16:23:19;4.60;52.80
21807;DHT22;11065;50.786;7.840;2022-12-11T16:25:46;4.60;52.90
21807;DHT22;11065;50.786;7.840;2022-12-11T16:28:15;4.60;52.90
21807;DHT22;11065;50.786;7.840;2022-12-11T16:30:43;4.60;53.00
21807;DHT22;11065;50.786;7.840;2022-12-11T16:33:10;4.60;53.00
21807;DHT22;11065;50.786;7.840;2022-12-11T16:35:39;4.60;53.00
21807;DHT22;11065;50.786;7.840;2022-12-11T16:38:07;4.60;53.00
21807;DHT22;11065;50.786;7.840;2022-12-11T16:40:36;4.60;53.10
21807;DHT22;11065;50.786;7.840;2022-12-11T16:43:04;4.60;53.10
21807;DHT22;11065;50.786;7.840;2022-12-11T16:45:30;4.60;53.10
21807;DHT22;11065;50.786;7.840;2022-12-11T16:47:57;4.60;53.10
21807;DHT22;11065;50.786;7.840;2022-12-11T16:50:28;4.60;53.10
21807;DHT22;11065;50.786;7.840;2022-12-11T16:52:55;4.60;53.00
21807;DHT22;11065;50.786;7.840;2022-12-11T16:55:22;4.60;53.00
21807;DHT22;11065;50.786;7.840;2022-12-11T16:57:49;4.60;53.00
21807;DHT22;11065;50.786;7.840;2022-12-11T17:00:16;4.60;53.00
21807;DHT22;11065;50.786;7.840;2022-12-11T17:02:43;4.60;53.00
21807;DHT22;11065;50.786;7.840;2022-12-11T17:05:09;4.60;53.00
21807;DHT22;11065;50.786;7.840;2022-12-11T17:07:37;4.60;53.00
21807;DHT22;11065;50.786;7.840;2022-12-11T17:10:04;4.60;52.90
21807;DHT22;11065;50.786;7.840;2022-12-11T17:12:30;4.50;52.90
21807;DHT22;11065;50.786;7.840;2022-12-11T17:14:57;4.50;53.00
21807;DHT22;11065;50.786;7.840;2022-12-11T17:17:24;4.50;53.00
21807;DHT22;11065;50.786;7.840;2022-12-11T17:19:51;4.50;53.10
21807;DHT22;11065;50.786;7.840;2022-12-11T17:22:18;4.50;53.10
21807;DHT22;11065;50.786;7.840;2022-12-11T17:24:45;4.50;53.10
21807;DHT22;11065;50.786;7.840;2022-12-11T17:27:11;4.50;53.20
21807;DHT22;11065;50.786;7.840;2022-12-11T17:29:38;4.50;53.20
21807;DHT22;11065;50.786;7.840;2022-12-11T17:32:05;4.50;53.20
21807;DHT22;11065;50.786;7.840;2022-12-11T17:34:32;4.50;53.20
21807;DHT22;11065;50.786;7.840;2022-12-11T17:37:04;4.50;53.30